sensor_id;sensor_type;location;lat;lon;timestamp;pressure;altitude;pressure_sealevel;temperature;humidity
55914;BME280;58179;48.776;9.124;2023-08-17T00:00:49;97543.03;;;19.33;100.00
55914;BME280;58179;48.776;9.124;2023-08-17T00:03:15;97549.22;;;19.34;100.00
55914;BME280;58179;48.776;9.124;2023-08-17T00:05:41;97548.13;;;19.35;100.00
55914;BME280;58179;48.776;9.124;2023-08-17T00:08:07;97553.97;;;19.37;100.00
55914;BME280;58179;48.776;9.124;2023-08-17T00:10:33;97542.63;;;19.40;100.00
55914;BME280;58179;48.776;9.124;2023-08-17T00:13:00;97546.91;;;19.41;100.00
55914;BME280;58179;48.776;9.124;2023-08-17T00:15:29;97556.53;;;19.42;100.00
55914;BME280;58179;48.776;9.124;2023-08-17T00:17:55;97550.69;;;19.40;100.00
55914;BME280;58179;48.776;9.124;2023-08-17T00:20:21;97548.63;;;19.37;100.00
55914;BME280;58179;48.776;9.124;2023-08-17T00:22:48;97548.91;;;19.36;100.00
55914;BME280;58179;48.776;9.124;2023-08-17T00:25:14;97555.06;;;19.36;100.00
55914;BME280;58179;48.776;9.124;2023-08-17T00:27:40;97560.44;;;19.36;100.00
55914;BME280;58179;48.776;9.124;2023-08-17T00:30:07;97552.69;;;19.34;100.00
55914;BME280;58179;48.776;9.124;2023-08-17T00:32:35;97545.72;;;19.33;100.00
55914;BME280;58179;48.776;9.124;2023-08-17T00:35:01;97543.38;;;19.32;100.00
55914;BME280;58179;48.776;9.124;2023-08-17T00:37:28;97534.31;;;19.28;100.00
55914;BME280;58179;48.776;9.124;2023-08-17T00:39:54;97527.97;;;19.24;100.00
55914;BME280;58179;48.776;9.124;2023-08-17T00:42:20;97521.03;;;19.23;100.00
55914;BME280;58179;48.776;9.124;2023-08-17T00:44:46;97524.00;;;19.21;100.00
55914;BME280;58179;48.776;9.124;2023-08-17T00:47:13;97529.06;;;19.23;100.00
55914;BME280;58179;48.776;9.124;2023-08-17T00:49:41;97536.63;;;19.21;100.00
55914;BME280;58179;48.776;9.124;2023-08-17T00:52:07;97528.09;;;19.19;100.00
55914;BME280;58179;48.776;9.124;2023-08-17T00:54:34;97522.72;;;19.19;100.00
55914;BME280;58179;48.776;9.124;2023-08-17T00:57:01;97519.56;;;19.17;100.00
55914;BME280;58179;48.776;9.124;2023-08-17T00:59:27;97521.84;;;19.10;100.00
55914;BME280;58179;48.776;9.124;2023-08-17T01:01:54;97520.56;;;19.07;100.00
55914;BME280;58179;48.776;9.124;2023-08-17T01:04:20;97512.31;;;19.04;100.00
55914;BME280;58179;48.776;9.124;2023-08-17T01:06:48;97512.94;;;19.01;100.00
55914;BME280;58179;48.776;9.124;2023-08-17T01:09:15;97517.50;;;19.00;100.00
55914;BME280;58179;48.776;9.124;2023-08-17T01:11:48;97522.38;;;18.98;100.00
55914;BME280;58179;48.776;9.124;2023-08-17T01:14:19;97521.88;;;18.96;100.00
55914;BME280;58179;48.776;9.124;2023-08-17T01:16:50;97523.16;;;18.99;100.00
55914;BME280;58179;48.776;9.124;2023-08-17T01:19:24;97524.94;;;19.03;100.00
55914;BME280;58179;48.776;9.124;2023-08-17T01:21:54;97526.91;;;19.11;100.00
55914;BME280;58179;48.776;9.124;2023-08-17T01:24:24;97517.97;;;19.16;100.00
55914;BME280;58179;48.776;9.124;2023-08-17T01:26:50;97523.81;;;19.18;100.00
55914;BME280;58179;48.776;9.124;2023-08-17T01:29:16;97522.25;;;19.17;100.00
55914;BME280;58179;48.776;9.124;2023-08-17T01:31:47;97522.25;;;19.17;100.00
55914;BME280;58179;48.776;9.124;2023-08-17T01:34:19;97524.31;;;19.20;100.00
55914;BME280;58179;48.776;9.124;2023-08-17T01:36:53;97519.94;;;19.24;100.00
55914;BME280;58179;48.776;9.124;2023-08-17T01:39:26;97520.91;;;19.28;100.00
55914;BME280;58179;48.776;9.124;2023-08-17T01:41:55;97516.53;;;19.32;100.00
55914;BME280;58179;48.776;9.124;2023-08-17T01:44:22;97513.03;;;19.31;100.00
55914;BME280;58179;48.776;9.124;2023-08-17T01:46:49;97513.84;;;19.32;100.00
55914;BME280;58179;48.776;9.124;2023-08-17T01:49:15;97512.91;;;19.37;100.00
55914;BME280;58179;48.776;9.124;2023-08-17T01:51:41;97508.84;;;19.39;100.00
55914;BME280;58179;48.776;9.124;2023-08-17T01:54:08;97513.09;;;19.40;100.00
55914;BME280;58179;48.776;9.124;2023-08-17T01:56:35;97518.16;;;19.42;100.00
55914;BME280;58179;48.776;9.124;2023-08-17T01:59:02;97518.16;;;19.42;100.00
55914;BME280;58179;48.776;9.124;2023-08-17T02:01:30;97514.09;;;19.44;100.00
55914;BME280;58179;48.776;9.124;2023-08-17T02:03:56;97519.44;;;19.44;100.00
55914;BME280;58179;48.776;9.124;2023-08-17T02:06:22;97514.09;;;19.44;100.00
55914;BME280;58179;48.776;9.124;2023-08-17T02:08:48;97510.31;;;19.45;100.00
55914;BME280;58179;48.776;9.124;2023-08-17T02:11:14;97506.53;;;19.46;100.00
55914;BME280;58179;48.776;9.124;2023-08-17T02:13:42;97500.06;;;19.47;100.00
55914;BME280;58179;48.776;9.124;2023-08-17T02:16:08;97499.28;;;19.47;100.00
55914;BME280;58179;48.776;9.124;2023-08-17T02:18:34;97494.41;;;19.49;100.00
55914;BME280;58179;48.776;9.124;2023-08-17T02:21:01;97497.56;;;19.51;100.00
55914;BME280;58179;48.776;9.124;2023-08-17T02:23:27;97486.53;;;19.52;100.00
55914;BME280;58179;48.776;9.124;2023-08-17T02:25:53;97492.19;;;19.51;100.00
55914;BME280;58179;48.776;9.124;2023-08-17T02:28:19;97483.06;;;19.52;100.00
55914;BME280;58179;48.776;9.124;2023-08-17T02:30:48;97480.88;;;19.54;100.00
55914;BME280;58179;48.776;9.124;2023-08-17T02:33:15;97487.50;;;19.56;100.00
55914;BME280;58179;48.776;9.124;2023-08-17T02:35:41;97484.81;;;19.56;100.00
55914;BME280;58179;48.776;9.124;2023-08-17T02:38:07;97490.19;;;19.56;100.00
55914;BME280;58179;48.776;9.124;2023-08-17T02:40:33;97482.91;;;19.57;100.00
55914;BME280;58179;48.776;9.124;2023-08-17T02:42:59;97481.03;;;19.57;100.00
55914;BME280;58179;48.776;9.124;2023-08-17T02:45:25;97483.72;;;19.57;100.00
55914;BME280;58179;48.776;9.124;2023-08-17T02:47:53;97472.97;;;19.57;100.00
55914;BME280;58179;48.776;9.124;2023-08-17T02:50:19;97475.34;;;19.59;100.00
55914;BME280;58179;48.776;9.124;2023-08-17T02:52:45;97477.25;;;19.58;100.00
55914;BME280;58179;48.776;9.124;2023-08-17T02:55:11;97465.22;;;19.56;100.00
55914;BME280;58179;48.776;9.124;2023-08-17T02:57:38;97463.16;;;19.53;100.00
55914;BME280;58179;48.776;9.124;2023-08-17T03:00:05;97458.41;;;19.50;100.00
55914;BME280;58179;48.776;9.124;2023-08-17T03:02:31;97464.84;;;19.49;100.00
55914;BME280;58179;48.776;9.124;2023-08-17T03:04:59;97465.94;;;19.48;100.00
55914;BME280;58179;48.776;9.124;2023-08-17T03:07:25;97464.06;;;19.48;100.00
55914;BME280;58179;48.776;9.124;2023-08-17T03:09:51;97460.59;;;19.48;100.00
55914;BME280;58179;48.776;9.124;2023-08-17T03:12:18;97449.84;;;19.48;100.00
55914;BME280;58179;48.776;9.124;2023-08-17T03:14:44;97447.94;;;19.48;100.00
55914;BME280;58179;48.776;9.124;2023-08-17T03:17:10;97447.16;;;19.48;100.00
55914;BME280;58179;48.776;9.124;2023-08-17T03:19:36;97442.09;;;19.46;100.00
55914;BME280;58179;48.776;9.124;2023-08-17T03:22:04;97437.81;;;19.45;100.00
55914;BME280;58179;48.776;9.124;2023-08-17T03:24:30;97448.84;;;19.44;100.00
55914;BME280;58179;48.776;9.124;2023-08-17T03:26:56;97441.91;;;19.43;100.00
55914;BME280;58179;48.776;9.124;2023-08-17T03:29:22;97436.53;;;19.43;100.00
55914;BME280;58179;48.776;9.124;2023-08-17T03:31:48;97436.81;;;19.41;100.00
55914;BME280;58179;48.776;9.124;2023-08-17T03:34:15;97441.41;;;19.41;100.00
55914;BME280;58179;48.776;9.124;2023-08-17T03:36:42;97437.13;;;19.40;100.00
55914;BME280;58179;48.776;9.124;2023-08-17T03:39:09;97431.28;;;19.38;100.00
55914;BME280;58179;48.776;9.124;2023-08-17T03:41:36;97435.88;;;19.37;100.00
55914;BME280;58179;48.776;9.124;2023-08-17T03:44:03;97436.16;;;19.36;100.00
55914;BME280;58179;48.776;9.124;2023-08-17T03:46:31;97443.44;;;19.35;100.00
55914;BME280;58179;48.776;9.124;2023-08-17T03:48:58;97437.56;;;19.33;100.00
55914;BME280;58179;48.776;9.124;2023-08-17T03:51:24;97438.97;;;19.30;100.00
55914;BME280;58179;48.776;9.124;2023-08-17T03:53:50;97450.03;;;19.29;100.00
55914;BME280;58179;48.776;9.124;2023-08-17T03:56:18;97449.22;;;19.28;100.00
55914;BME280;58179;48.776;9.124;2023-08-17T03:58:44;97455.69;;;19.27;100.00
55914;BME280;58179;48.776;9.124;2023-08-17T04:01:10;97458.38;;;19.27;100.00
55914;BME280;58179;48.776;9.124;2023-08-17T04:03:37;97455.69;;;19.27;100.00
55914;BME280;58179;48.776;9.124;2023-08-17T04:06:05;97459.66;;;19.30;100.00
55914;BME280;58179;48.776;9.124;2023-08-17T04:08:32;97461.56;;;19.29;100.00
55914;BME280;58179;48.776;9.124;2023-08-17T04:10:58;97461.84;;;19.28;100.00
55914;BME280;58179;48.776;9.124;2023-08-17T04:13:26;97468.00;;;19.28;100.00
55914;BME280;58179;48.776;9.124;2023-08-17T04:15:53;97469.59;;;19.29;100.00
55914;BME280;58179;48.776;9.124;2023-08-17T04:18:19;97469.31;;;19.31;100.00
55914;BME280;58179;48.776;9.124;2023-08-17T04:20:45;97466.13;;;19.29;100.00
55914;BME280;58179;48.776;9.124;2023-08-17T04:23:11;97472.59;;;19.28;100.00
55914;BME280;58179;48.776;9.124;2023-08-17T04:25:38;97476.66;;;19.25;100.00
55914;BME280;58179;48.776;9.124;2023-08-17T04:28:04;97481.56;;;19.23;100.00
55914;BME280;58179;48.776;9.124;2023-08-17T04:30:32;97483.75;;;19.21;100.00
55914;BME280;58179;48.776;9.124;2023-08-17T04:32:58;97479.78;;;19.19;100.00
55914;BME280;58179;48.776;9.124;2023-08-17T04:35:24;97483.56;;;19.18;100.00
55914;BME280;58179;48.776;9.124;2023-08-17T04:37:52;97482.47;;;19.19;100.00
55914;BME280;58179;48.776;9.124;2023-08-17T04:40:18;97476.28;;;19.18;100.00
55914;BME280;58179;48.776;9.124;2023-08-17T04:42:44;97475.50;;;19.18;100.00
55914;BME280;58179;48.776;9.124;2023-08-17T04:45:10;97482.75;;;19.17;100.00
55914;BME280;58179;48.776;9.124;2023-08-17T04:47:39;97477.88;;;19.19;100.00
55914;BME280;58179;48.776;9.124;2023-08-17T04:50:06;97480.28;;;19.21;100.00
55914;BME280;58179;48.776;9.124;2023-08-17T04:52:32;97475.69;;;19.21;100.00
55914;BME280;58179;48.776;9.124;2023-08-17T04:54:58;97487.53;;;19.20;100.00
55914;BME280;58179;48.776;9.124;2023-08-17T04:57:25;97488.63;;;19.19;100.00
55914;BME280;58179;48.776;9.124;2023-08-17T04:59:52;97486.44;;;19.21;100.00
55914;BME280;58179;48.776;9.124;2023-08-17T05:02:18;97487.72;;;19.24;100.00
55914;BME280;58179;48.776;9.124;2023-08-17T05:04:46;97489.63;;;19.23;100.00
55914;BME280;58179;48.776;9.124;2023-08-17T05:07:13;97494.66;;;19.25;100.00
55914;BME280;58179;48.776;9.124;2023-08-17T05:09:39;97487.72;;;19.24;100.00
55914;BME280;58179;48.776;9.124;2023-08-17T05:12:06;97486.59;;;19.25;100.00
55914;BME280;58179;48.776;9.124;2023-08-17T05:14:32;97487.91;;;19.27;100.00
55914;BME280;58179;48.776;9.124;2023-08-17T05:16:58;97491.25;;;19.33;100.00
55914;BME280;58179;48.776;9.124;2023-08-17T05:19:24;97489.84;;;19.36;100.00
55914;BME280;58179;48.776;9.124;2023-08-17T05:21:52;97500.00;;;19.39;100.00
55914;BME280;58179;48.776;9.124;2023-08-17T05:24:19;97500.78;;;19.39;100.00
55914;BME280;58179;48.776;9.124;2023-08-17T05:26:46;97504.25;;;19.40;100.00
55914;BME280;58179;48.776;9.124;2023-08-17T05:29:12;97505.38;;;19.39;100.00
55914;BME280;58179;48.776;9.124;2023-08-17T05:31:38;97503.47;;;19.39;100.00
55914;BME280;58179;48.776;9.124;2023-08-17T05:34:05;97495.88;;;19.41;100.00
55914;BME280;58179;48.776;9.124;2023-08-17T05:36:31;97507.91;;;19.44;100.00
55914;BME280;58179;48.776;9.124;2023-08-17T05:38:58;97505.72;;;19.46;100.00
55914;BME280;58179;48.776;9.124;2023-08-17T05:41:24;97509.41;;;19.50;100.00
55914;BME280;58179;48.776;9.124;2023-08-17T05:43:51;97498.88;;;19.53;100.00
55914;BME280;58179;48.776;9.124;2023-08-17T05:46:17;97505.19;;;19.57;100.00
55914;BME280;58179;48.776;9.124;2023-08-17T05:48:43;97502.22;;;19.59;100.00
55914;BME280;58179;48.776;9.124;2023-08-17T05:51:09;97491.16;;;19.60;100.00
55914;BME280;58179;48.776;9.124;2023-08-17T05:53:36;97498.59;;;19.63;100.00
55914;BME280;58179;48.776;9.124;2023-08-17T05:56:03;97495.91;;;19.63;100.00
55914;BME280;58179;48.776;9.124;2023-08-17T05:58:30;97497.00;;;19.62;100.00
55914;BME280;58179;48.776;9.124;2023-08-17T06:01:04;97496.72;;;19.64;100.00
55914;BME280;58179;48.776;9.124;2023-08-17T06:03:31;97503.66;;;19.65;100.00
55914;BME280;58179;48.776;9.124;2023-08-17T06:05:57;97504.47;;;19.65;100.00
55914;BME280;58179;48.776;9.124;2023-08-17T06:08:23;97504.97;;;19.67;100.00
55914;BME280;58179;48.776;9.124;2023-08-17T06:10:49;97520.44;;;19.70;100.00
55914;BME280;58179;48.776;9.124;2023-08-17T06:13:17;97514.66;;;19.77;100.00
55914;BME280;58179;48.776;9.124;2023-08-17T06:15:43;97516.41;;;19.82;100.00
55914;BME280;58179;48.776;9.124;2023-08-17T06:18:09;97519.25;;;19.85;100.00
55914;BME280;58179;48.776;9.124;2023-08-17T06:20:35;97521.94;;;19.85;100.00
55914;BME280;58179;48.776;9.124;2023-08-17T06:23:02;97523.53;;;19.86;100.00
55914;BME280;58179;48.776;9.124;2023-08-17T06:25:28;97517.88;;;19.88;100.00
55914;BME280;58179;48.776;9.124;2023-08-17T06:27:54;97521.22;;;19.93;100.00
55914;BME280;58179;48.776;9.124;2023-08-17T06:30:23;97519.03;;;19.95;100.00
55914;BME280;58179;48.776;9.124;2023-08-17T06:32:51;97516.81;;;19.97;100.00
55914;BME280;58179;48.776;9.124;2023-08-17T06:35:17;97515.22;;;19.96;100.00
55914;BME280;58179;48.776;9.124;2023-08-17T06:37:43;97512.72;;;20.00;100.00
55914;BME280;58179;48.776;9.124;2023-08-17T06:40:11;97512.28;;;20.06;100.00
55914;BME280;58179;48.776;9.124;2023-08-17T06:42:37;97508.38;;;20.13;100.00
55914;BME280;58179;48.776;9.124;2023-08-17T06:45:05;97507.25;;;20.14;100.00
55914;BME280;58179;48.776;9.124;2023-08-17T06:47:32;97507.91;;;20.19;100.00
55914;BME280;58179;48.776;9.124;2023-08-17T06:49:59;97504.47;;;20.27;100.00
55914;BME280;58179;48.776;9.124;2023-08-17T06:52:25;97510.22;;;20.34;100.00
55914;BME280;58179;48.776;9.124;2023-08-17T06:54:51;97509.47;;;20.42;100.00
55914;BME280;58179;48.776;9.124;2023-08-17T06:57:17;97508.22;;;20.48;100.00
55914;BME280;58179;48.776;9.124;2023-08-17T06:59:44;97510.75;;;20.54;100.00
55914;BME280;58179;48.776;9.124;2023-08-17T07:02:12;97507.28;;;20.62;100.00
55914;BME280;58179;48.776;9.124;2023-08-17T07:04:39;97519.03;;;20.66;100.00
55914;BME280;58179;48.776;9.124;2023-08-17T07:07:05;97509.38;;;20.65;100.00
55914;BME280;58179;48.776;9.124;2023-08-17T07:09:31;97514.28;;;20.71;100.00
55914;BME280;58179;48.776;9.124;2023-08-17T07:11:58;97511.28;;;20.73;100.00
55914;BME280;58179;48.776;9.124;2023-08-17T07:14:24;97517.47;;;20.73;100.00
55914;BME280;58179;48.776;9.124;2023-08-17T07:16:50;97513.03;;;20.77;100.00
55914;BME280;58179;48.776;9.124;2023-08-17T07:19:16;97515.25;;;20.84;100.00
55914;BME280;58179;48.776;9.124;2023-08-17T07:21:44;97519.22;;;20.86;100.00
55914;BME280;58179;48.776;9.124;2023-08-17T07:24:15;97519.72;;;20.89;100.00
55914;BME280;58179;48.776;9.124;2023-08-17T07:26:42;97519.84;;;20.83;100.00
55914;BME280;58179;48.776;9.124;2023-08-17T07:29:08;97515.25;;;20.84;100.00
55914;BME280;58179;48.776;9.124;2023-08-17T07:31:34;97517.63;;;20.85;100.00
55914;BME280;58179;48.776;9.124;2023-08-17T07:34:03;97514.78;;;20.91;100.00
55914;BME280;58179;48.776;9.124;2023-08-17T07:36:29;97521.13;;;20.95;100.00
55914;BME280;58179;48.776;9.124;2023-08-17T07:38:57;97517.19;;;21.01;100.00
55914;BME280;58179;48.776;9.124;2023-08-17T07:41:23;97521.47;;;21.02;100.00
55914;BME280;58179;48.776;9.124;2023-08-17T07:43:49;97521.97;;;21.12;100.00
55914;BME280;58179;48.776;9.124;2023-08-17T07:46:16;97526.69;;;21.15;100.00
55914;BME280;58179;48.776;9.124;2023-08-17T07:48:42;97526.41;;;21.17;100.00
55914;BME280;58179;48.776;9.124;2023-08-17T07:51:08;97518.47;;;21.20;100.00
55914;BME280;58179;48.776;9.124;2023-08-17T07:53:35;97519.94;;;21.27;100.00
55914;BME280;58179;48.776;9.124;2023-08-17T07:56:02;97514.22;;;21.37;100.00
55914;BME280;58179;48.776;9.124;2023-08-17T07:58:28;97509.31;;;21.47;100.00
55914;BME280;58179;48.776;9.124;2023-08-17T08:00:54;97514.38;;;21.49;100.00
55914;BME280;58179;48.776;9.124;2023-08-17T08:03:21;97503.28;;;21.50;100.00
55914;BME280;58179;48.776;9.124;2023-08-17T08:05:47;97509.13;;;21.61;100.00
55914;BME280;58179;48.776;9.124;2023-08-17T08:08:13;97507.69;;;21.72;100.00
55914;BME280;58179;48.776;9.124;2023-08-17T08:10:40;97508.78;;;21.80;100.00
55914;BME280;58179;48.776;9.124;2023-08-17T08:13:08;97507.97;;;21.88;100.00
55914;BME280;58179;48.776;9.124;2023-08-17T08:15:34;97506.06;;;21.97;100.00
55914;BME280;58179;48.776;9.124;2023-08-17T08:18:01;97500.34;;;22.07;100.00
55914;BME280;58179;48.776;9.124;2023-08-17T08:20:27;97495.53;;;22.21;100.00
55914;BME280;58179;48.776;9.124;2023-08-17T08:22:53;97498.38;;;22.25;100.00
55914;BME280;58179;48.776;9.124;2023-08-17T08:25:19;97495.25;;;22.14;100.00
55914;BME280;58179;48.776;9.124;2023-08-17T08:27:45;97489.56;;;22.07;100.00
55914;BME280;58179;48.776;9.124;2023-08-17T08:30:13;97497.47;;;22.12;100.00
55914;BME280;58179;48.776;9.124;2023-08-17T08:32:39;97493.44;;;22.27;100.00
55914;BME280;58179;48.776;9.124;2023-08-17T08:35:06;97494.78;;;22.42;100.00
55914;BME280;58179;48.776;9.124;2023-08-17T08:37:33;97499.97;;;22.55;100.00
55914;BME280;58179;48.776;9.124;2023-08-17T08:39:59;97491.97;;;22.67;100.00
55914;BME280;58179;48.776;9.124;2023-08-17T08:42:25;97495.88;;;22.78;100.00
55914;BME280;58179;48.776;9.124;2023-08-17T08:44:52;97489.47;;;22.92;100.00
55914;BME280;58179;48.776;9.124;2023-08-17T08:47:19;97488.75;;;23.03;100.00
55914;BME280;58179;48.776;9.124;2023-08-17T08:49:55;97491.63;;;23.19;100.00
55914;BME280;58179;48.776;9.124;2023-08-17T08:52:32;97488.19;;;23.31;100.00
55914;BME280;58179;48.776;9.124;2023-08-17T08:54:59;97489.66;;;23.28;100.00
55914;BME280;58179;48.776;9.124;2023-08-17T08:57:29;97482.59;;;23.36;100.00
55914;BME280;58179;48.776;9.124;2023-08-17T08:59:56;97487.75;;;23.49;100.00
55914;BME280;58179;48.776;9.124;2023-08-17T09:02:24;97493.66;;;23.64;100.00
55914;BME280;58179;48.776;9.124;2023-08-17T09:04:50;97481.31;;;23.75;100.00
55914;BME280;58179;48.776;9.124;2023-08-17T09:07:18;97484.81;;;23.75;100.00
55914;BME280;58179;48.776;9.124;2023-08-17T09:09:45;97484.34;;;23.73;100.00
55914;BME280;58179;48.776;9.124;2023-08-17T09:12:12;97479.25;;;23.72;100.00
55914;BME280;58179;48.776;9.124;2023-08-17T09:14:38;97480.38;;;23.71;100.00
55914;BME280;58179;48.776;9.124;2023-08-17T09:17:05;97476.56;;;23.72;100.00
55914;BME280;58179;48.776;9.124;2023-08-17T09:19:33;97475.91;;;23.75;100.00
55914;BME280;58179;48.776;9.124;2023-08-17T09:22:00;97476.25;;;23.85;100.00
55914;BME280;58179;48.776;9.124;2023-08-17T09:24:34;97476.06;;;24.03;100.00
55914;BME280;58179;48.776;9.124;2023-08-17T09:27:01;97477.59;;;24.24;100.00
55914;BME280;58179;48.776;9.124;2023-08-17T09:29:27;97483.47;;;24.51;100.00
55914;BME280;58179;48.776;9.124;2023-08-17T09:31:53;97478.72;;;24.72;100.00
55914;BME280;58179;48.776;9.124;2023-08-17T09:34:20;97472.38;;;24.92;100.00
55914;BME280;58179;48.776;9.124;2023-08-17T09:36:47;97471.53;;;25.16;100.00
55914;BME280;58179;48.776;9.124;2023-08-17T09:39:15;97471.81;;;25.27;100.00
55914;BME280;58179;48.776;9.124;2023-08-17T09:41:44;97475.72;;;25.41;100.00
55914;BME280;58179;48.776;9.124;2023-08-17T09:44:11;97469.91;;;25.55;100.00
55914;BME280;58179;48.776;9.124;2023-08-17T09:46:38;97476.94;;;25.72;100.00
55914;BME280;58179;48.776;9.124;2023-08-17T09:49:06;97473.38;;;25.68;100.00
55914;BME280;58179;48.776;9.124;2023-08-17T09:51:32;97476.09;;;25.68;100.00
55914;BME280;58179;48.776;9.124;2023-08-17T09:54:01;97477.81;;;25.60;100.00
55914;BME280;58179;48.776;9.124;2023-08-17T09:56:27;97471.84;;;25.55;100.00
55914;BME280;58179;48.776;9.124;2023-08-17T09:58:54;97474.19;;;25.56;100.00
55914;BME280;58179;48.776;9.124;2023-08-17T10:01:22;97473.03;;;25.57;100.00
55914;BME280;58179;48.776;9.124;2023-08-17T10:03:50;97471.78;;;25.67;100.00
55914;BME280;58179;48.776;9.124;2023-08-17T10:06:20;97469.38;;;25.77;100.00
55914;BME280;58179;48.776;9.124;2023-08-17T10:08:47;97463.31;;;25.68;100.00
55914;BME280;58179;48.776;9.124;2023-08-17T10:11:19;97467.09;;;25.52;100.00
55914;BME280;58179;48.776;9.124;2023-08-17T10:13:52;97463.81;;;25.30;100.00
55914;BME280;58179;48.776;9.124;2023-08-17T10:16:23;97466.84;;;25.29;100.00
55914;BME280;58179;48.776;9.124;2023-08-17T10:18:58;97460.94;;;25.39;100.00
55914;BME280;58179;48.776;9.124;2023-08-17T10:21:31;97464.50;;;25.55;100.00
55914;BME280;58179;48.776;9.124;2023-08-17T10:23:58;97472.19;;;25.53;100.00
55914;BME280;58179;48.776;9.124;2023-08-17T10:26:26;97462.13;;;25.54;100.00
55914;BME280;58179;48.776;9.124;2023-08-17T10:28:53;97461.31;;;25.53;100.00
55914;BME280;58179;48.776;9.124;2023-08-17T10:31:21;97463.13;;;25.61;100.00
55914;BME280;58179;48.776;9.124;2023-08-17T10:33:48;97463.78;;;25.70;100.00
55914;BME280;58179;48.776;9.124;2023-08-17T10:36:14;97466.06;;;25.84;100.00
55914;BME280;58179;48.776;9.124;2023-08-17T10:38:41;97460.88;;;25.95;100.00
55914;BME280;58179;48.776;9.124;2023-08-17T10:41:09;97462.31;;;26.04;100.00
55914;BME280;58179;48.776;9.124;2023-08-17T10:43:54;97454.94;;;26.20;100.00
55914;BME280;58179;48.776;9.124;2023-08-17T10:46:20;97460.56;;;26.12;100.00
55914;BME280;58179;48.776;9.124;2023-08-17T10:48:46;97458.28;;;25.98;100.00
55914;BME280;58179;48.776;9.124;2023-08-17T10:51:12;97455.81;;;25.77;100.00
55914;BME280;58179;48.776;9.124;2023-08-17T10:53:40;97463.91;;;25.62;100.00
55914;BME280;58179;48.776;9.124;2023-08-17T10:56:12;97461.41;;;25.69;100.00
55914;BME280;58179;48.776;9.124;2023-08-17T10:58:43;97459.50;;;25.85;100.00
55914;BME280;58179;48.776;9.124;2023-08-17T11:01:10;97449.06;;;26.03;100.00
55914;BME280;58179;48.776;9.124;2023-08-17T11:03:37;97454.16;;;26.20;100.00
55914;BME280;58179;48.776;9.124;2023-08-17T11:06:16;97456.97;;;26.39;100.00
55914;BME280;58179;48.776;9.124;2023-08-17T11:08:54;97459.41;;;26.60;100.00
55914;BME280;58179;48.776;9.124;2023-08-17T11:11:22;97457.94;;;26.82;100.00
55914;BME280;58179;48.776;9.124;2023-08-17T11:13:53;97446.78;;;27.03;100.00
55914;BME280;58179;48.776;9.124;2023-08-17T11:16:20;97452.50;;;27.17;100.00
55914;BME280;58179;48.776;9.124;2023-08-17T11:18:46;97447.56;;;27.22;100.00
55914;BME280;58179;48.776;9.124;2023-08-17T11:21:13;97449.88;;;27.20;100.00
55914;BME280;58179;48.776;9.124;2023-08-17T11:23:40;97442.78;;;27.16;100.00
55914;BME280;58179;48.776;9.124;2023-08-17T11:26:08;97440.06;;;27.16;100.00
55914;BME280;58179;48.776;9.124;2023-08-17T11:28:34;97440.78;;;27.13;100.00
55914;BME280;58179;48.776;9.124;2023-08-17T11:31:10;97435.13;;;27.21;100.00
55914;BME280;58179;48.776;9.124;2023-08-17T11:33:37;97438.91;;;27.36;100.00
55914;BME280;58179;48.776;9.124;2023-08-17T11:36:05;97438.56;;;27.57;100.00
55914;BME280;58179;48.776;9.124;2023-08-17T11:38:33;97434.28;;;27.79;100.00
55914;BME280;58179;48.776;9.124;2023-08-17T11:40:59;97438.41;;;27.92;100.00
55914;BME280;58179;48.776;9.124;2023-08-17T11:43:26;97439.50;;;27.87;100.00
55914;BME280;58179;48.776;9.124;2023-08-17T11:45:54;97445.53;;;27.77;100.00
55914;BME280;58179;48.776;9.124;2023-08-17T11:48:23;97450.28;;;27.61;100.00
55914;BME280;58179;48.776;9.124;2023-08-17T11:50:49;97453.00;;;27.42;100.00
55914;BME280;58179;48.776;9.124;2023-08-17T11:53:16;97449.34;;;27.15;100.00
55914;BME280;58179;48.776;9.124;2023-08-17T11:55:42;97459.06;;;26.96;100.00
55914;BME280;58179;48.776;9.124;2023-08-17T11:58:09;97453.31;;;26.82;100.00
55914;BME280;58179;48.776;9.124;2023-08-17T12:00:39;97452.78;;;26.77;100.00
55914;BME280;58179;48.776;9.124;2023-08-17T12:03:06;97456.88;;;26.86;100.00
55914;BME280;58179;48.776;9.124;2023-08-17T12:05:34;97464.81;;;27.11;100.00
55914;BME280;58179;48.776;9.124;2023-08-17T12:08:01;97471.72;;;27.47;100.00
55914;BME280;58179;48.776;9.124;2023-08-17T12:10:28;97487.00;;;27.70;100.00
55914;BME280;58179;48.776;9.124;2023-08-17T12:12:58;97494.13;;;27.79;100.00
55914;BME280;58179;48.776;9.124;2023-08-17T12:15:30;97493.22;;;27.71;100.00
55914;BME280;58179;48.776;9.124;2023-08-17T12:17:59;97498.03;;;27.58;100.00
55914;BME280;58179;48.776;9.124;2023-08-17T12:20:26;97504.38;;;27.47;100.00
55914;BME280;58179;48.776;9.124;2023-08-17T12:22:53;97495.88;;;27.29;100.00
55914;BME280;58179;48.776;9.124;2023-08-17T12:25:21;97481.16;;;27.14;100.00
55914;BME280;58179;48.776;9.124;2023-08-17T12:27:50;97480.88;;;27.00;100.00
55914;BME280;58179;48.776;9.124;2023-08-17T12:30:25;97483.19;;;26.82;100.00
55914;BME280;58179;48.776;9.124;2023-08-17T12:32:52;97494.88;;;26.67;100.00
55914;BME280;58179;48.776;9.124;2023-08-17T12:35:18;97483.94;;;26.48;100.00
55914;BME280;58179;48.776;9.124;2023-08-17T12:37:47;97482.00;;;26.33;100.00
55914;BME280;58179;48.776;9.124;2023-08-17T12:40:15;97481.28;;;26.20;100.00
55914;BME280;58179;48.776;9.124;2023-08-17T12:42:41;97484.91;;;26.08;100.00
55914;BME280;58179;48.776;9.124;2023-08-17T12:45:08;97505.53;;;25.97;100.00
55914;BME280;58179;48.776;9.124;2023-08-17T12:47:34;97519.16;;;25.85;100.00
55914;BME280;58179;48.776;9.124;2023-08-17T12:50:00;97530.06;;;25.73;100.00